This is the latest recevied weather packets stored in our database for station/object IR1ZYZ-3. If no packets are shown the sender has not sent any weather packets the latest 10 day(s).
| Time | Temp. | Humidity | Pressure | Rain* | Wind** | Luminosity | Snow |
|---|---|---|---|---|---|---|---|
| 1787489010 | 35.56° C | 41% | 1017.2 hPa | - | - | - | - |
| 1787488404 | 36.11° C | 42% | 1017.2 hPa | - | - | - | - |
| 1787487799 | 35.56° C | 43% | 1017.1 hPa | - | - | - | - |
| 1787487195 | 35° C | 42% | 1017.1 hPa | - | - | - | - |
| 1787486590 | 34.44° C | 43% | 1017.2 hPa | - | - | - | - |
| 1787485986 | 34.44° C | 43% | 1017.2 hPa | - | - | - | - |
| 1787485413 | 35.56° C | 43% | 1017.3 hPa | - | - | - | - |
| 1787485381 | 35.56° C | 43% | 1017.3 hPa | - | - | - | - |
| 1787484776 | 34.44° C | 43% | 1017.3 hPa | - | - | - | - |
| 1787484172 | 35° C | 44% | 1017.4 hPa | - | - | - | - |
| 1787483567 | 32.78° C | 46% | 1017.6 hPa | - | - | - | - |
| 1787482962 | 33.89° C | 45% | 1017.5 hPa | - | - | - | - |
| 1787482357 | 32.78° C | 46% | 1017.6 hPa | - | - | - | - |
| 1787481752 | 32.78° C | 47% | 1017.7 hPa | - | - | - | - |
| 1787481148 | 32.78° C | 47% | 1017.7 hPa | - | - | - | - |
| 1787480543 | 32.78° C | 49% | 1017.7 hPa | - | - | - | - |
| 1787479938 | 31.11° C | 49% | 1018 hPa | - | - | - | - |
| 1787479334 | 31.11° C | 50% | 1017.8 hPa | - | - | - | - |
| 1787478729 | 33.33° C | 46% | 1017.7 hPa | - | - | - | - |
| 1787478124 | 32.22° C | 51% | 1017.8 hPa | - | - | - | - |
| 1787477519 | 31.67° C | 51% | 1017.9 hPa | - | - | - | - |
| 1787476914 | 31.11° C | 53% | 1017.8 hPa | - | - | - | - |
| 1787476316 | 30.56° C | 53% | 1017.9 hPa | - | - | - | - |
| 1787475704 | 30.56° C | 57% | 1018.1 hPa | - | - | - | - |
| 1787475100 | 29.44° C | 60% | 1018.2 hPa | - | - | - | - |
* Rain since midnight (hover to see other rain measurements)
** Current wind speed in m/s (hover to see current wind gust speed)